Time;durP1;ratioP1;P1;durP2;ratioP2;P2;SDS_P1;SDS_P2;PMS_P1;PMS_P2;Temp;Humidity;BMP_temperature;BMP_pressure;BME280_temperature;BME280_humidity;BME280_pressure;Samples;Min_cycle;Max_cycle;Signal;HPM_P1;HPM_P2
2023/01/05 00:25:16;;;;;;;;;;;7.60;99.90;;;;;;4990829;28;20097;-77
2023/01/05 00:28:16;;;;;;;78.22;48.47;;;7.70;99.90;;;;;;5006929;28;19929;-78
2023/01/05 00:31:09;;;;;;;75.95;46.83;;;7.60;99.90;;;;;;4978891;28;20069;-79
2023/01/05 00:37:31;;;;;;;76.20;45.95;;;7.70;99.90;;;;;;5001873;28;20486;-80
2023/01/05 00:40:32;;;;;;;76.97;46.45;;;7.50;99.90;;;;;;4991904;28;20056;-81
2023/01/05 00:51:06;;;;;;;68.32;42.38;;;7.70;99.90;;;;;;5004240;28;20154;-79
2023/01/05 00:54:37;;;;;;;66.57;38.78;;;7.70;99.90;;;;;;4975233;28;20051;-81
2023/01/05 00:58:37;;;;;;;;;;;;;;;;;;;;;
2023/01/05 01:06:06;;;;;;;60.63;39.20;;;7.60;99.90;;;;;;4951208;29;20071;-82
2023/01/05 01:09:24;;;;;;;60.22;37.90;;;7.60;99.90;;;;;;4976218;28;20047;-80
2023/01/05 01:12:02;;;;;;;59.72;36.60;;;7.60;99.90;;;;;;4931182;28;20059;-73
2023/01/05 01:14:36;;;;;;;53.33;33.70;;;7.50;99.90;;;;;;4961134;28;20142;-74
2023/01/05 01:17:07;;;;;;;;;;;7.60;99.90;;;;;;4931960;28;20047;-77
2023/01/05 01:19:38;;;;;;;56.42;34.78;;;7.60;99.90;;;;;;4979636;28;19922;-73
2023/01/05 01:22:19;;;;;;;65.05;39.20;;;7.60;99.90;;;;;;4963065;28;20062;-81
2023/01/05 01:24:58;;;;;;;64.75;41.13;;;7.60;99.90;;;;;;4956017;28;20072;-79
2023/01/05 01:27:25;;;;;;;63.72;41.03;;;7.70;99.90;;;;;;4977724;28;20057;-74
2023/01/05 01:29:56;;;;;;;61.55;41.00;;;7.70;99.90;;;;;;4975728;28;20437;-74
2023/01/05 01:32:28;;;;;;;65.78;42.92;;;7.70;99.90;;;;;;4961839;28;20043;-80
2023/01/05 01:34:57;;;;;;;66.07;41.97;;;7.70;99.90;;;;;;5022798;28;20052;-78
2023/01/05 01:37:25;;;;;;;64.03;43.78;;;7.60;99.90;;;;;;5034292;28;20087;-77
2023/01/05 01:39:53;;;;;;;69.63;43.22;;;7.60;99.90;;;;;;4992412;28;20396;-79
2023/01/05 01:42:22;;;;;;;65.40;42.42;;;7.60;99.90;;;;;;5035663;28;21257;-72
2023/01/05 01:45:01;;;;;;;68.28;42.50;;;7.70;99.90;;;;;;5031796;28;20078;-76
2023/01/05 01:47:48;;;;;;;68.72;42.03;;;7.60;99.90;;;;;;5028181;28;20048;-81
2023/01/05 01:50:24;;;;;;;67.60;42.17;;;7.60;99.90;;;;;;5034722;28;20041;-75
2023/01/05 01:53:00;;;;;;;77.13;45.88;;;7.60;99.90;;;;;;5035251;28;20044;-72
2023/01/05 01:55:30;;;;;;;74.55;44.33;;;7.60;99.90;;;;;;5014657;28;20469;-81
2023/01/05 01:58:10;;;;;;;74.22;46.28;;;7.60;99.90;;;;;;5014852;28;20045;-72
2023/01/05 02:00:42;;;;;;;66.95;42.88;;;7.50;99.90;;;;;;5008505;28;20503;-72
2023/01/05 02:03:24;;;;;;;68.47;45.03;;;7.50;99.90;;;;;;4999822;28;20061;-73
2023/01/05 02:06:00;;;;;;;76.43;46.00;;;7.60;99.90;;;;;;4997506;28;20425;-76
2023/01/05 02:08:33;;;;;;;73.20;43.45;;;7.50;99.90;;;;;;5000228;28;20046;-74
2023/01/05 02:11:30;;;;;;;66.32;43.28;;;7.60;99.90;;;;;;5010768;28;20049;-74
2023/01/05 02:14:10;;;;;;;63.90;39.78;;;7.60;99.90;;;;;;5007073;28;20038;-75
2023/01/05 02:20:28;;;;;;;63.63;39.40;;;7.70;99.90;;;;;;5001551;28;20503;-77
2023/01/05 02:23:40;;;;;;;57.72;36.13;;;7.70;99.90;;;;;;5002048;28;20050;-73
2023/01/05 02:26:31;;;;;;;56.20;34.72;;;7.70;99.90;;;;;;5000951;28;20037;-75
2023/01/05 02:29:08;;;;;;;56.30;34.55;;;7.60;99.90;;;;;;4989837;28;20085;-73
2023/01/05 02:31:50;;;;;;;55.58;34.80;;;7.70;99.90;;;;;;5015453;28;20064;-73
2023/01/05 02:34:46;;;;;;;56.78;35.58;;;7.60;99.90;;;;;;4991984;28;20056;-73
2023/01/05 02:37:34;;;;;;;53.10;33.38;;;7.60;99.90;;;;;;4990294;28;20042;-76
2023/01/05 02:40:28;;;;;;;50.00;32.45;;;7.60;99.90;;;;;;5009851;28;20046;-73
2023/01/05 02:42:56;;;;;;;47.92;31.17;;;7.60;99.90;;;;;;5006669;28;20096;-74
2023/01/05 02:45:27;;;;;;;53.13;32.83;;;7.50;99.90;;;;;;5006950;28;20490;-82
2023/01/05 02:48:33;;;;;;;47.08;30.08;;;7.60;99.90;;;;;;5013365;28;20046;-75
2023/01/05 02:55:34;;;;;;;46.58;27.40;;;7.60;99.90;;;;;;4996766;28;20042;-76
2023/01/05 02:58:39;;;;;;;40.40;26.20;;;7.60;99.90;;;;;;5004933;28;20045;-74
2023/01/05 03:02:32;;;;;;;34.85;22.25;;;7.50;99.90;;;;;;5007748;28;20112;-77
2023/01/05 03:09:52;;;;;;;36.58;22.95;;;7.70;99.90;;;;;;4869471;28;20390;-78
2023/01/05 03:20:08;;;;;;;44.90;29.52;;;7.50;99.90;;;;;;4904687;28;20054;-75
2023/01/05 03:35:49;;;;;;;45.92;30.05;;;7.50;99.90;;;;;;5009753;28;20052;-77
2023/01/05 03:38:37;;;;;;;48.28;31.02;;;7.40;99.90;;;;;;5002050;28;20125;-79
2023/01/05 03:45:23;;;;;;;45.38;28.70;;;7.30;99.90;;;;;;5003759;28;20048;-74
2023/01/05 03:48:13;;;;;;;42.35;26.83;;;7.40;99.90;;;;;;4999150;28;20065;-77
2023/01/05 03:50:40;;;;;;;46.58;29.13;;;7.50;99.90;;;;;;5014214;28;20474;-82
2023/01/05 03:53:10;;;;;;;50.53;29.80;;;7.50;99.90;;;;;;5015948;28;20436;-79
2023/01/05 03:55:49;;;;;;;46.40;29.40;;;7.60;99.90;;;;;;5001209;28;20044;-81
2023/01/05 03:58:17;;;;;;;43.72;28.17;;;7.70;99.90;;;;;;5006891;28;20042;-79
2023/01/05 04:00:45;;;;;;;46.63;30.60;;;7.70;99.90;;;;;;5041996;28;20044;-76
2023/01/05 04:03:57;;;;;;;47.85;30.60;;;7.60;99.90;;;;;;5013013;28;20065;-81
2023/01/05 04:06:53;;;;;;;45.88;28.75;;;7.70;99.90;;;;;;5018104;28;20065;-82
2023/01/05 04:09:23;;;;;;;43.03;27.65;;;7.70;99.90;;;;;;5039979;28;20390;-80
2023/01/05 04:11:54;;;;;;;37.83;26.65;;;7.70;99.90;;;;;;5005232;28;20148;-81
2023/01/05 04:14:28;;;;;;;39.28;26.00;;;7.70;99.90;;;;;;5009522;28;20053;-77
2023/01/05 04:17:28;;;;;;;48.15;27.80;;;7.70;99.90;;;;;;5023018;28;20103;-78
2023/01/05 04:20:05;;;;;;;45.88;27.83;;;7.70;99.90;;;;;;5019916;28;20040;-76
2023/01/05 04:22:39;;;;;;;44.13;27.88;;;7.70;99.90;;;;;;5004645;28;20034;-76
2023/01/05 04:25:07;;;;;;;50.35;30.95;;;7.80;99.90;;;;;;5039172;28;20135;-77
2023/01/05 04:27:36;;;;;;;48.42;30.10;;;7.80;99.90;;;;;;5024324;28;20041;-76
2023/01/05 04:30:21;;;;;;;49.67;31.73;;;7.80;99.90;;;;;;5012947;28;20422;-78
2023/01/05 04:33:04;;;;;;;48.05;31.80;;;7.50;99.90;;;;;;5011659;28;20521;-74
2023/01/05 04:35:40;;;;;;;46.55;32.53;;;7.50;99.90;;;;;;5008161;28;20087;-76
2023/01/05 04:38:49;;;;;;;47.92;32.20;;;7.50;99.90;;;;;;5028390;28;20049;-73
2023/01/05 04:41:17;;;;;;;51.45;32.67;;;7.40;99.90;;;;;;5038350;28;20040;-81
2023/01/05 04:43:44;;;;;;;52.33;32.22;;;7.30;99.90;;;;;;5053925;28;20091;-80
2023/01/05 04:46:11;;;;;;;51.95;34.10;;;7.30;99.90;;;;;;5041227;28;20044;-79
2023/01/05 04:48:43;;;;;;;51.00;30.75;;;7.30;99.90;;;;;;5015089;28;20041;-79
2023/01/05 04:51:38;;;;;;;51.40;32.35;;;7.40;99.90;;;;;;5030153;28;20136;-75
2023/01/05 04:54:24;;;;;;;52.42;31.58;;;7.50;99.90;;;;;;5007658;28;20056;-81
2023/01/05 04:57:11;;;;;;;50.05;30.88;;;7.60;99.90;;;;;;5011082;28;20124;-79
2023/01/05 04:59:39;;;;;;;52.38;31.80;;;7.70;99.90;;;;;;5040796;28;20490;-78
2023/01/05 05:02:10;;;;;;;54.63;31.42;;;7.70;99.90;;;;;;5031184;28;20075;-80
2023/01/05 05:04:41;;;;;;;48.13;29.90;;;7.70;99.90;;;;;;5045660;28;20404;-76
2023/01/05 05:07:10;;;;;;;51.15;32.15;;;7.70;99.90;;;;;;5016150;28;20128;-82
2023/01/05 05:09:48;;;;;;;48.67;31.50;;;7.70;99.90;;;;;;5032791;28;20045;-81
2023/01/05 05:12:50;;;;;;;49.75;30.50;;;7.70;99.90;;;;;;5046953;28;20059;-83
2023/01/05 05:15:26;;;;;;;49.35;31.27;;;7.70;99.90;;;;;;5043128;28;20042;-81
2023/01/05 05:18:31;;;;;;;50.70;32.25;;;7.70;99.90;;;;;;5025648;28;20048;-83
2023/01/05 05:21:18;;;;;;;50.40;32.60;;;7.70;99.90;;;;;;5031368;28;20071;-78
2023/01/05 05:23:46;;;;;;;51.75;33.92;;;7.60;99.90;;;;;;5043635;28;20041;-80
2023/01/05 05:26:35;;;;;;;54.28;34.40;;;7.60;99.90;;;;;;5017873;28;20088;-81
2023/01/05 05:29:08;;;;;;;50.35;33.38;;;7.60;99.90;;;;;;5014701;28;20474;-82
2023/01/05 05:31:36;;;;;;;58.03;34.53;;;7.60;99.90;;;;;;5044334;28;20040;-80
2023/01/05 05:34:04;;;;;;;55.83;33.88;;;7.70;99.90;;;;;;5012863;28;20041;-77
2023/01/05 05:36:31;;;;;;;54.38;32.63;;;7.60;99.90;;;;;;5017057;28;20049;-77
2023/01/05 05:39:02;;;;;;;50.92;31.70;;;7.70;99.90;;;;;;5031646;28;20068;-80
2023/01/05 05:41:35;;;;;;;51.42;33.60;;;7.70;99.90;;;;;;5018890;28;20037;-79
2023/01/05 05:44:02;;;;;;;;;;;7.70;99.90;;;;;;5016851;28;20060;-75
2023/01/05 05:46:35;;;;;;;51.38;32.10;;;7.80;99.90;;;;;;5015811;28;19925;-80
2023/01/05 05:49:07;;;;;;;51.65;33.28;;;7.80;99.90;;;;;;5016315;28;20094;-78
2023/01/05 05:51:36;;;;;;;53.80;33.80;;;7.70;99.90;;;;;;5045690;28;20088;-74
2023/01/05 05:54:03;;;;;;;54.75;34.00;;;7.60;99.90;;;;;;5026129;28;20042;-82
2023/01/05 05:56:31;;;;;;;53.65;33.53;;;7.60;99.90;;;;;;5042759;28;20054;-81
2023/01/05 05:59:04;;;;;;;107.25;60.28;;;7.60;99.90;;;;;;5042434;28;20050;-75
2023/01/05 06:01:34;;;;;;;183.98;94.07;;;7.70;99.90;;;;;;5017445;28;20037;-71
2023/01/05 06:04:05;;;;;;;82.22;49.17;;;7.70;99.90;;;;;;5018978;28;20091;-75
2023/01/05 06:06:34;;;;;;;156.23;84.63;;;7.70;99.90;;;;;;5019514;28;20079;-79
2023/01/05 06:09:03;;;;;;;166.20;93.80;;;7.70;99.90;;;;;;5013167;28;20037;-78
2023/01/05 06:11:31;;;;;;;228.15;124.30;;;7.80;99.90;;;;;;5028212;28;20038;-73
2023/01/05 06:14:10;;;;;;;173.13;99.97;;;7.80;99.90;;;;;;5016320;28;20392;-73
2023/01/05 06:16:38;;;;;;;114.88;69.88;;;7.90;99.90;;;;;;5007650;28;20404;-79
2023/01/05 06:19:05;;;;;;;82.90;49.20;;;7.80;99.90;;;;;;5044954;28;20098;-76
2023/01/05 06:21:36;;;;;;;74.78;46.95;;;7.80;99.90;;;;;;5018236;28;20041;-74
2023/01/05 06:24:04;;;;;;;72.57;46.42;;;7.80;99.90;;;;;;5018779;28;20053;-75
2023/01/05 06:26:36;;;;;;;79.72;46.65;;;7.80;99.90;;;;;;5022522;28;20140;-82
2023/01/05 06:29:03;;;;;;;72.53;44.90;;;7.80;99.90;;;;;;5057177;28;20507;-74
2023/01/05 06:31:30;;;;;;;205.57;105.80;;;7.80;99.90;;;;;;5020461;28;20550;-73
2023/01/05 06:34:00;;;;;;;108.38;63.58;;;7.90;99.90;;;;;;5038063;28;20536;-75
2023/01/05 06:36:28;;;;;;;80.97;50.45;;;7.90;99.90;;;;;;5039834;28;20045;-76
2023/01/05 06:39:16;;;;;;;76.20;44.90;;;7.80;99.90;;;;;;5039866;28;20114;-76
2023/01/05 06:41:58;;;;;;;67.40;42.72;;;7.80;99.90;;;;;;5040430;28;20049;-75
2023/01/05 06:44:27;;;;;;;69.00;41.28;;;7.80;99.90;;;;;;5020739;28;20041;-79
2023/01/05 06:46:54;;;;;;;65.90;41.92;;;7.90;99.90;;;;;;5038399;28;20464;-78
2023/01/05 06:49:22;;;;;;;69.13;41.63;;;7.90;99.90;;;;;;5056105;28;20037;-75
2023/01/05 06:51:52;;;;;;;67.75;41.67;;;8.00;99.90;;;;;;5021694;28;20053;-77
2023/01/05 06:54:20;;;;;;;72.43;43.47;;;7.90;99.90;;;;;;5055558;28;20037;-78
2023/01/05 06:56:49;;;;;;;72.10;43.40;;;7.90;99.90;;;;;;5055893;28;20052;-76
2023/01/05 06:59:27;;;;;;;71.97;43.80;;;7.80;99.90;;;;;;5021227;28;20056;-79
2023/01/05 07:01:54;;;;;;;78.63;46.08;;;7.80;99.90;;;;;;5054457;28;20041;-75
2023/01/05 07:04:28;;;;;;;77.00;43.58;;;7.80;99.90;;;;;;5020705;28;20049;-75
2023/01/05 07:07:12;;;;;;;69.55;41.47;;;7.80;99.90;;;;;;5019159;28;20079;-78
2023/01/05 07:10:04;;;;;;;77.70;44.92;;;7.80;99.90;;;;;;5021220;28;20040;-75
2023/01/05 07:12:32;;;;;;;81.32;46.88;;;7.80;99.90;;;;;;5052935;28;20489;-75
2023/01/05 07:15:22;;;;;;;70.13;42.25;;;7.80;99.90;;;;;;5023776;28;20081;-74
2023/01/05 07:18:20;;;;;;;54.80;35.50;;;7.70;99.90;;;;;;5024501;28;20045;-80
2023/01/05 07:20:57;;;;;;;52.58;32.53;;;7.70;99.90;;;;;;5037183;28;20156;-77
2023/01/05 07:23:36;;;;;;;54.63;34.25;;;7.70;99.90;;;;;;5022471;28;20060;-75
2023/01/05 07:26:08;;;;;;;53.25;32.97;;;7.60;99.90;;;;;;5020521;28;20381;-75
2023/01/05 07:28:36;;;;;;;46.38;31.85;;;7.70;99.90;;;;;;5054405;28;20353;-78
2023/01/05 07:31:06;;;;;;;56.38;35.88;;;7.70;99.90;;;;;;5054429;28;20403;-78
2023/01/05 07:33:35;;;;;;;59.25;35.63;;;7.70;99.90;;;;;;5053701;28;20037;-77
2023/01/05 07:36:12;;;;;;;61.47;36.97;;;7.80;99.90;;;;;;5021713;28;20145;-74
2023/01/05 07:38:42;;;;;;;58.90;36.30;;;7.80;99.90;;;;;;5020360;28;20072;-74
2023/01/05 07:41:09;;;;;;;53.83;35.72;;;7.70;99.90;;;;;;5054378;28;20106;-79
2023/01/05 07:43:36;;;;;;;58.03;35.15;;;7.70;99.90;;;;;;5054224;28;20045;-74
2023/01/05 07:46:11;;;;;;;57.50;35.90;;;7.70;99.90;;;;;;5020922;28;20056;-74
2023/01/05 07:48:49;;;;;;;62.03;38.15;;;7.70;99.90;;;;;;5020837;28;20049;-76
2023/01/05 07:52:16;;;;;;;74.53;43.47;;;7.80;99.90;;;;;;5019800;28;20048;-75
2023/01/05 07:54:53;;;;;;;69.20;44.15;;;7.80;99.90;;;;;;5022846;28;20053;-80
2023/01/05 07:57:46;;;;;;;80.07;47.38;;;7.90;99.90;;;;;;5050773;28;20057;-74
2023/01/05 08:00:13;;;;;;;82.40;49.95;;;8.10;99.90;;;;;;5055829;28;20499;-75
2023/01/05 08:03:01;;;;;;;77.32;47.80;;;8.10;99.90;;;;;;5020441;28;20051;-78
2023/01/05 08:05:41;;;;;;;76.18;49.88;;;8.10;99.90;;;;;;5023207;28;20099;-75
2023/01/05 08:08:18;;;;;;;85.70;51.17;;;8.20;99.90;;;;;;5055218;28;20036;-79
2023/01/05 08:10:51;;;;;;;80.00;49.25;;;8.20;99.90;;;;;;5055268;28;20106;-77
2023/01/05 08:16:14;;;;;;;72.90;47.10;;;8.10;99.90;;;;;;5055600;28;20146;-74
2023/01/05 08:18:52;;;;;;;65.55;41.53;;;8.20;99.90;;;;;;5020340;28;20481;-73
2023/01/05 08:21:48;;;;;;;56.65;35.53;;;8.30;99.90;;;;;;5034257;28;20041;-74
2023/01/05 08:24:25;;;;;;;48.70;32.00;;;8.30;99.90;;;;;;5036572;28;20066;-78
2023/01/05 08:27:04;;;;;;;54.17;34.70;;;8.30;99.90;;;;;;5053180;28;20040;-74
2023/01/05 08:29:32;;;;;;;53.42;33.55;;;8.40;99.90;;;;;;5054198;28;20061;-81
2023/01/05 08:32:24;;;;;;;61.13;34.05;;;8.40;99.90;;;;;;5052728;28;20500;-74
2023/01/05 08:35:33;;;;;;;52.83;33.85;;;8.50;99.90;;;;;;5018276;28;20136;-74
2023/01/05 08:38:38;;;;;;;59.15;38.58;;;8.60;99.90;;;;;;5020487;28;20118;-76
2023/01/05 08:41:29;;;;;;;54.55;34.63;;;8.70;99.90;;;;;;5051468;28;20048;-74
2023/01/05 08:44:27;;;;;;;;;;;;;;;;;;;;;
2023/01/05 08:47:21;;;;;;;;;;;8.60;99.90;;;;;;5037927;28;20059;-76
2023/01/05 08:50:19;;;;;;;59.72;35.30;;;8.60;99.90;;;;;;5052432;28;19924;-74
2023/01/05 08:52:56;;;;;;;56.30;36.40;;;8.60;99.90;;;;;;5019422;28;20049;-75
2023/01/05 08:55:43;;;;;;;53.70;37.40;;;8.70;99.90;;;;;;5021206;28;20045;-75
2023/01/05 08:58:21;;;;;;;61.25;39.65;;;8.70;99.90;;;;;;5023805;28;20126;-76
2023/01/05 09:01:00;;;;;;;64.53;37.63;;;8.70;99.90;;;;;;5014627;28;20386;-81
2023/01/05 09:03:41;;;;;;;55.50;37.03;;;8.80;99.90;;;;;;4996535;28;20041;-75
2023/01/05 09:06:12;;;;;;;54.92;36.90;;;8.90;99.90;;;;;;4983743;28;20111;-79
2023/01/05 09:08:48;;;;;;;60.42;36.22;;;9.00;99.90;;;;;;5015700;28;20038;-74
2023/01/05 09:11:30;;;;;;;;;;;9.00;99.90;;;;;;4977248;28;20042;-77
2023/01/05 09:14:05;;;;;;;57.10;37.17;;;9.00;99.90;;;;;;5017928;28;19925;-77
2023/01/05 09:16:55;;;;;;;64.05;38.90;;;9.10;99.90;;;;;;4984014;28;20462;-78
2023/01/05 09:19:50;;;;;;;57.40;36.05;;;9.20;99.90;;;;;;4996486;28;20057;-75
2023/01/05 09:22:43;;;;;;;58.15;37.78;;;9.10;99.90;;;;;;4999968;28;20042;-77
2023/01/05 09:25:34;;;;;;;56.65;37.08;;;9.20;99.90;;;;;;4999401;28;20049;-80
2023/01/05 09:28:12;;;;;;;54.92;36.40;;;9.10;99.90;;;;;;5013639;28;20045;-76
2023/01/05 09:30:53;;;;;;;49.90;34.25;;;9.20;99.90;;;;;;5003364;28;20046;-77
2023/01/05 09:33:34;;;;;;;50.80;35.08;;;9.30;99.90;;;;;;4985663;28;20132;-72
2023/01/05 09:36:13;;;;;;;49.20;31.23;;;9.30;99.90;;;;;;4984776;28;20456;-76
2023/01/05 09:39:03;;;;;;;48.53;32.45;;;9.40;99.90;;;;;;5000669;28;20046;-75
2023/01/05 09:42:11;;;;;;;50.47;34.95;;;9.50;99.90;;;;;;4984439;28;20042;-74
2023/01/05 09:45:20;;;;;;;47.35;32.53;;;9.40;99.90;;;;;;4977799;28;20108;-75
2023/01/05 09:48:04;;;;;;;46.65;30.05;;;9.50;99.90;;;;;;4999175;28;20045;-77
2023/01/05 09:50:49;;;;;;;43.50;29.40;;;9.50;99.90;;;;;;5003150;28;20448;-79
2023/01/05 09:53:22;;;;;;;47.10;30.23;;;9.50;99.90;;;;;;5019212;28;20489;-80
2023/01/05 09:55:50;;;;;;;48.90;29.88;;;9.50;99.90;;;;;;5018309;28;20088;-80
2023/01/05 09:58:23;;;;;;;44.35;28.17;;;9.60;99.90;;;;;;5025533;28;20057;-80
2023/01/05 10:01:20;;;;;;;44.50;28.33;;;9.70;99.90;;;;;;5035116;28;20045;-79
2023/01/05 10:04:22;;;;;;;49.78;30.30;;;9.80;99.90;;;;;;5018494;28;20141;-73
2023/01/05 10:07:04;;;;;;;50.75;32.97;;;9.90;99.90;;;;;;5003017;28;20052;-78
2023/01/05 10:09:35;;;;;;;52.10;32.80;;;9.90;99.90;;;;;;5036496;28;20492;-80
2023/01/05 10:15:04;;;;;;;39.42;27.73;;;9.90;99.90;;;;;;5037055;28;20061;-80
2023/01/05 10:17:34;;;;;;;39.97;27.48;;;9.80;99.90;;;;;;5036883;28;20500;-79
2023/01/05 10:20:44;;;;;;;42.28;27.33;;;9.80;99.90;;;;;;5036921;28;20107;-75
2023/01/05 10:23:41;;;;;;;47.58;30.65;;;9.80;99.90;;;;;;5034568;28;20473;-73
2023/01/05 10:26:28;;;;;;;54.20;32.80;;;9.80;99.90;;;;;;5017192;28;20539;-74
2023/01/05 10:29:50;;;;;;;52.97;32.65;;;10.00;99.90;;;;;;5007678;28;20582;-75
2023/01/05 10:32:53;;;;;;;52.97;32.28;;;10.20;99.90;;;;;;5017400;28;20057;-75
2023/01/05 10:36:46;;;;;;;52.78;33.75;;;10.20;99.90;;;;;;5024725;28;20175;-76
2023/01/05 10:40:43;;;;;;;49.42;31.42;;;10.20;99.90;;;;;;5018549;28;20042;-74
2023/01/05 10:43:41;;;;;;;52.10;31.10;;;10.10;99.90;;;;;;4993936;28;20057;-74
2023/01/05 10:46:36;;;;;;;43.10;28.90;;;10.20;99.90;;;;;;5019408;28;20152;-73
2023/01/05 10:49:43;;;;;;;47.35;28.95;;;10.20;99.90;;;;;;5034986;28;20049;-73
2023/01/05 10:52:32;;;;;;;50.85;31.10;;;10.30;99.90;;;;;;5016310;28;20052;-73
2023/01/05 10:55:18;;;;;;;46.80;29.65;;;10.10;99.90;;;;;;5018050;28;20451;-73
2023/01/05 10:58:26;;;;;;;42.05;28.25;;;10.20;99.90;;;;;;5019528;28;20056;-77
2023/01/05 11:01:41;;;;;;;37.90;26.05;;;10.40;99.90;;;;;;5001036;28;20046;-76
2023/01/05 11:04:42;;;;;;;44.88;26.58;;;10.50;99.90;;;;;;5000956;28;20934;-74
2023/01/05 11:07:15;;;;;;;47.35;26.88;;;10.50;99.90;;;;;;5031928;28;20076;-74
2023/01/05 11:09:53;;;;;;;42.05;25.10;;;10.60;99.90;;;;;;5003072;28;20390;-74
2023/01/05 11:12:43;;;;;;;42.17;26.10;;;10.60;99.90;;;;;;5024472;28;20046;-76
2023/01/05 11:15:20;;;;;;;44.92;26.02;;;10.50;99.90;;;;;;4986165;28;20226;-79
2023/01/05 11:17:50;;;;;;;44.53;25.33;;;10.50;99.90;;;;;;5025432;28;20052;-75
2023/01/05 11:23:53;;;;;;;44.17;24.50;;;10.50;99.90;;;;;;5009098;28;20049;-76
2023/01/05 11:26:30;;;;;;;47.95;29.13;;;10.60;99.90;;;;;;5010691;28;20037;-78
2023/01/05 11:29:30;;;;;;;46.75;29.42;;;10.60;99.90;;;;;;5030302;28;20128;-74
2023/01/05 11:32:12;;;;;;;41.38;26.35;;;10.60;99.90;;;;;;5034446;28;20160;-77
2023/01/05 11:35:00;;;;;;;47.00;26.70;;;10.60;99.90;;;;;;5023587;28;20038;-76
2023/01/05 11:37:47;;;;;;;48.60;28.52;;;10.60;99.90;;;;;;4979718;28;20051;-77
2023/01/05 11:40:32;;;;;;;53.55;29.25;;;10.60;99.90;;;;;;4964857;28;20051;-75
2023/01/05 11:43:39;;;;;;;50.42;27.05;;;10.60;99.90;;;;;;4956447;28;20434;-77
2023/01/05 11:46:42;;;;;;;47.65;28.85;;;10.70;99.90;;;;;;4982288;28;20495;-77
2023/01/05 11:49:10;;;;;;;45.03;26.52;;;10.70;99.90;;;;;;5011130;28;20050;-78
2023/01/05 11:51:40;;;;;;;;;;;10.90;99.90;;;;;;4994079;28;20069;-80
2023/01/05 11:54:38;;;;;;;44.47;25.92;;;11.00;99.90;;;;;;4974632;28;19992;-78
2023/01/05 11:57:25;;;;;;;46.60;25.45;;;11.10;99.90;;;;;;4996059;28;20081;-76
2023/01/05 12:00:59;;;;;;;39.03;24.65;;;11.30;99.90;;;;;;4981358;28;20054;-75
2023/01/05 12:04:23;;;;;;;43.13;24.10;;;11.50;99.90;;;;;;4907519;28;20075;-75
2023/01/05 12:11:25;;;;;;;33.75;21.05;;;11.60;99.90;;;;;;4978068;28;20082;-77
2023/01/05 12:15:00;;;;;;;35.00;21.70;;;11.50;99.90;;;;;;5003940;28;20088;-75
2023/01/05 12:17:39;;;;;;;32.97;20.20;;;11.30;99.90;;;;;;5015915;28;20097;-79
2023/01/05 12:25:00;;;;;;;30.15;18.25;;;11.40;99.90;;;;;;5016553;28;20044;-81
2023/01/05 12:28:20;;;;;;;30.30;17.38;;;11.70;99.90;;;;;;4962377;28;20050;-75
2023/01/05 12:31:36;;;;;;;24.90;16.40;;;11.80;99.90;;;;;;4975396;28;20449;-77
2023/01/05 12:35:06;;;;;;;26.70;16.17;;;12.10;99.90;;;;;;4958067;28;20047;-75
2023/01/05 12:39:14;;;;;;;21.77;14.52;;;12.30;99.90;;;;;;4956794;28;20078;-80
2023/01/05 12:42:38;;;;;;;23.92;15.18;;;12.40;99.90;;;;;;4991116;28;20066;-77
2023/01/05 12:45:35;;;;;;;26.65;15.65;;;12.80;99.90;;;;;;4975520;28;20520;-80
2023/01/05 12:48:28;;;;;;;21.52;13.55;;;13.20;99.90;;;;;;4975878;28;20077;-74
2023/01/05 12:51:47;;;;;;;22.15;15.38;;;14.10;99.90;;;;;;4972217;28;20137;-79
2023/01/05 12:54:49;;;;;;;24.92;16.90;;;14.40;99.90;;;;;;4971406;28;20043;-79
2023/01/05 12:57:59;;;;;;;;;;;;;;;;;;;;;
2023/01/05 13:00:50;;;;;;;26.85;17.38;;;14.40;99.90;;;;;;4947488;29;20066;-77
2023/01/05 13:07:01;;;;;;;21.63;14.38;;;17.00;94.70;;;;;;4998127;28;20050;-77
2023/01/05 13:13:13;;;;;;;22.27;14.52;;;18.80;81.40;;;;;;5000691;28;20042;-79
2023/01/05 13:16:13;;;;;;;24.58;17.90;;;20.00;74.40;;;;;;4984542;28;20057;-80
2023/01/05 13:19:34;;;;;;;22.95;15.98;;;21.00;70.30;;;;;;4984148;28;20050;-80
2023/01/05 13:22:22;;;;;;;152.70;62.08;;;21.90;66.20;;;;;;4967765;28;20050;-79
2023/01/05 13:25:06;;;;;;;;;;;22.20;64.80;;;;;;4983409;28;20054;-78
2023/01/05 13:31:49;;;;;;;23.40;17.10;;;21.90;62.80;;;;;;4982144;28;20057;-76
2023/01/05 13:34:32;;;;;;;27.75;20.48;;;21.60;62.40;;;;;;4998587;28;20046;-81
2023/01/05 13:37:58;;;;;;;27.30;19.77;;;21.50;62.80;;;;;;4989747;28;20046;-77
2023/01/05 13:41:16;;;;;;;24.70;16.80;;;21.70;62.30;;;;;;4990114;28;20485;-77
2023/01/05 13:44:30;;;;;;;30.60;22.55;;;21.80;61.90;;;;;;5024532;28;20397;-79
2023/01/05 13:48:17;;;;;;;25.63;18.30;;;21.50;61.80;;;;;;4987243;28;20053;-75
2023/01/05 13:51:42;;;;;;;29.35;20.63;;;21.20;62.60;;;;;;4970373;28;20050;-74
2023/01/05 13:55:00;;;;;;;25.92;18.65;;;20.90;63.00;;;;;;4970841;28;20525;-79
2023/01/05 13:58:45;;;;;;;26.73;18.38;;;20.30;63.70;;;;;;4947860;29;20047;-78
2023/01/05 14:01:32;;;;;;;22.30;17.33;;;19.30;65.00;;;;;;4937343;28;20050;-79
2023/01/05 14:04:25;;;;;;;23.55;16.77;;;19.60;65.90;;;;;;4997274;28;20054;-76
2023/01/05 14:07:15;;;;;;;23.20;15.20;;;20.00;65.20;;;;;;5002425;28;20456;-80
2023/01/05 14:10:43;;;;;;;21.20;15.45;;;19.80;64.90;;;;;;4955788;29;20130;-76
2023/01/05 14:14:07;;;;;;;20.55;15.23;;;19.60;65.00;;;;;;5004988;28;20437;-76
2023/01/05 14:16:59;;;;;;;22.83;15.40;;;18.80;66.20;;;;;;5011403;28;20073;-75
2023/01/05 14:19:59;;;;;;;22.85;15.82;;;17.90;68.30;;;;;;5007955;28;20076;-80
2023/01/05 14:23:04;;;;;;;22.20;14.82;;;17.30;70.30;;;;;;4994462;28;20443;-73
2023/01/05 14:25:56;;;;;;;22.92;16.45;;;16.80;71.90;;;;;;4994600;28;20069;-78
2023/01/05 14:28:40;;;;;;;22.38;14.77;;;16.40;73.20;;;;;;5031942;28;20072;-76
2023/01/05 14:31:26;;;;;;;23.35;14.85;;;15.80;74.40;;;;;;5004180;28;20053;-75
2023/01/05 14:34:15;;;;;;;23.65;15.32;;;15.50;75.50;;;;;;5012464;28;20042;-76
2023/01/05 14:37:27;;;;;;;26.17;15.30;;;15.00;76.90;;;;;;4991748;28;20538;-78
2023/01/05 14:40:32;;;;;;;21.58;14.65;;;14.30;78.50;;;;;;5019614;28;20045;-75
2023/01/05 14:43:34;;;;;;;21.23;14.27;;;13.20;82.80;;;;;;5010107;28;20524;-79
2023/01/05 14:50:33;;;;;;;21.60;14.48;;;12.10;89.50;;;;;;5032481;28;20049;-75
2023/01/05 14:57:35;;;;;;;24.17;15.73;;;11.50;93.00;;;;;;5014218;28;20049;-75
2023/01/05 15:00:47;;;;;;;26.80;16.10;;;11.50;95.00;;;;;;4986405;28;20120;-74
2023/01/05 15:04:01;;;;;;;26.15;15.30;;;11.20;97.90;;;;;;5014802;28;20057;-75
2023/01/05 15:06:59;;;;;;;27.30;16.33;;;11.00;99.90;;;;;;5005208;28;20048;-75
2023/01/05 15:19:53;;;;;;;;;;;;;;;;;;;;;
2023/01/05 15:28:15;;;;;;;25.25;16.13;;;10.30;99.90;;;;;;4907473;29;20122;-74
2023/01/05 15:40:21;;;;;;;;;;;;;;;;;;;;;
2023/01/05 15:52:02;;;;;;;33.33;18.35;;;9.80;99.90;;;;;;4941973;28;20046;-75
2023/01/05 15:55:33;;;;;;;;;;;;;;;;;;;;;
2023/01/05 15:58:16;;;;;;;34.40;20.83;;;9.80;99.90;;;;;;4953667;28;20047;-75
2023/01/05 16:01:01;;;;;;;43.28;26.90;;;9.50;99.90;;;;;;4975620;28;20065;-77
2023/01/05 16:03:34;;;;;;;40.83;25.08;;;9.40;99.90;;;;;;4976033;28;20130;-73
2023/01/05 16:06:19;;;;;;;106.85;60.30;;;9.40;99.90;;;;;;4978031;28;20089;-75
2023/01/05 16:08:59;;;;;;;48.30;28.30;;;9.50;99.90;;;;;;4978690;28;20082;-76
2023/01/05 16:12:22;;;;;;;55.53;33.80;;;9.40;99.90;;;;;;4964709;28;20072;-75
2023/01/05 16:29:43;;;;;;;38.90;22.33;;;9.20;99.90;;;;;;4979684;28;20069;-77
2023/01/05 16:33:22;;;;;;;38.10;23.65;;;9.30;99.90;;;;;;4986026;28;20066;-81
2023/01/05 16:36:11;;;;;;;38.42;23.83;;;9.10;99.90;;;;;;4998535;28;20469;-78
2023/01/05 16:44:03;;;;;;;76.43;44.10;;;9.00;99.90;;;;;;4923187;29;20036;-81
2023/01/05 16:47:05;;;;;;;58.38;35.75;;;9.00;99.90;;;;;;4926538;29;20099;-76
2023/01/05 16:49:36;;;;;;;55.13;32.65;;;9.00;99.90;;;;;;4984016;28;20353;-80
2023/01/05 16:52:21;;;;;;;53.08;31.05;;;8.80;99.90;;;;;;4984556;28;20061;-78
2023/01/05 16:55:40;;;;;;;53.78;30.95;;;8.70;99.90;;;;;;5006047;28;20390;-76
2023/01/05 16:58:30;;;;;;;59.50;29.90;;;8.70;99.90;;;;;;5005681;28;20070;-77
2023/01/05 17:01:15;;;;;;;53.10;30.92;;;8.70;99.90;;;;;;5001952;28;20049;-77
2023/01/05 17:03:58;;;;;;;55.50;34.30;;;8.70;99.90;;;;;;4987751;28;20046;-78
2023/01/05 17:06:30;;;;;;;56.92;32.95;;;8.50;99.90;;;;;;5003343;28;20043;-77
2023/01/05 17:10:14;;;;;;;58.35;33.70;;;8.40;99.90;;;;;;4990816;28;20068;-76
2023/01/05 17:13:29;;;;;;;61.90;34.17;;;8.30;99.90;;;;;;5001753;28;20046;-77
2023/01/05 17:16:37;;;;;;;57.40;33.67;;;8.30;99.90;;;;;;5004392;28;20058;-76